Lincoln, United Kingdom
Current Conditions -  °F | °C
As of 10:50 AM on Friday 31 Oct 2014 (Local Time) from EGXW Reporting Station
Haze Haze  
Wind Chill: 17°   Ceiling: 25000
Heat Index: 17°   Visibility: 5mi
Dew Point: 14°   Wind: 14mph
Humidity: 82%   Direction: 190°S
Pressure: 29.97"   Gusts: NA
Location:  53.23°N, 0.54°W
Report Text: EGXW 311050Z 19012KT 8000 HZ FEW150 BKN250 17/14 Q1015 BLU NOSIG
Loading
Personal Weather Stations






























Interactive Weather Map
Tropical Storm Tracking
New forecast layout! Learn more

10-Day Weather Forecast

Advertisements
Track Severe Weather on mobile